createdAt,value
2022-09-13T00:01:29.790Z,20.4
2022-09-13T00:03:29.838Z,20.5
2022-09-13T00:05:29.731Z,20.4
2022-09-13T00:07:29.712Z,20.3
2022-09-13T00:09:29.779Z,20.4
2022-09-13T00:11:29.755Z,20.2
2022-09-13T00:13:29.813Z,20.0
2022-09-13T00:15:29.828Z,19.8
2022-09-13T00:17:29.719Z,19.8
2022-09-13T00:19:29.788Z,19.7
2022-09-13T00:21:29.771Z,19.8
2022-09-13T00:23:29.761Z,19.9
2022-09-13T00:25:29.732Z,19.8
2022-09-13T00:27:29.727Z,20.2
2022-09-13T00:29:29.745Z,20.4
2022-09-13T00:31:29.812Z,20.5
2022-09-13T00:33:29.728Z,20.4
2022-09-13T00:35:29.733Z,20.3
2022-09-13T00:37:29.809Z,20.3
2022-09-13T00:39:29.781Z,20.4
2022-09-13T00:41:29.805Z,20.2
2022-09-13T00:43:29.744Z,20.3
2022-09-13T00:45:29.778Z,20.0
2022-09-13T00:47:29.753Z,20.0
2022-09-13T00:49:29.776Z,20.0
2022-09-13T00:51:29.803Z,19.8
2022-09-13T00:53:29.748Z,19.6
2022-09-13T00:55:29.784Z,19.5
2022-09-13T00:57:29.766Z,19.3
2022-09-13T00:59:29.853Z,19.5
2022-09-13T01:01:29.776Z,19.6
2022-09-13T01:03:29.763Z,19.3
2022-09-13T01:05:29.788Z,19.6
2022-09-13T01:07:29.810Z,19.7
2022-09-13T01:09:29.932Z,19.8
2022-09-13T01:11:29.769Z,20.1
2022-09-13T01:13:29.804Z,20.3
2022-09-13T01:15:29.808Z,20.1
2022-09-13T01:17:29.797Z,20.1
2022-09-13T01:19:29.813Z,20.0
2022-09-13T01:21:29.767Z,19.9
2022-09-13T01:23:29.789Z,20.0
2022-09-13T01:25:29.772Z,19.9
2022-09-13T01:27:29.781Z,19.6
2022-09-13T01:29:29.852Z,19.6
2022-09-13T01:31:29.903Z,19.6
2022-09-13T01:33:29.811Z,19.8
2022-09-13T01:35:29.871Z,20.0
2022-09-13T01:37:29.796Z,20.0
2022-09-13T01:39:29.781Z,20.0
2022-09-13T01:41:29.818Z,20.0
2022-09-13T01:43:29.828Z,20.0
2022-09-13T01:45:29.851Z,20.2
2022-09-13T01:47:29.797Z,19.9
2022-09-13T01:49:29.799Z,20.2
2022-09-13T01:51:29.815Z,20.2
2022-09-13T01:53:29.802Z,20.6
2022-09-13T01:55:29.812Z,20.8
2022-09-13T01:57:59.857Z,20.8
2022-09-13T01:59:59.815Z,20.9
2022-09-13T02:01:59.829Z,20.9
2022-09-13T02:03:59.811Z,21.0
2022-09-13T02:05:59.819Z,21.0
2022-09-13T02:07:59.927Z,20.8
2022-09-13T02:09:59.814Z,20.8
2022-09-13T02:11:59.879Z,20.4
2022-09-13T02:13:59.896Z,20.3
2022-09-13T02:15:59.817Z,20.5
2022-09-13T02:17:59.807Z,20.3
2022-09-13T02:19:59.936Z,20.4
2022-09-13T02:21:59.854Z,20.4
2022-09-13T02:23:59.848Z,20.3
2022-09-13T02:25:59.842Z,20.6
2022-09-13T02:27:59.865Z,20.7
2022-09-13T02:29:59.844Z,20.7
2022-09-13T02:31:59.951Z,20.6
2022-09-13T02:33:59.866Z,20.7
2022-09-13T02:35:59.886Z,20.5
2022-09-13T02:37:59.833Z,20.5
2022-09-13T02:39:59.879Z,20.3
2022-09-13T02:41:59.845Z,20.5
2022-09-13T02:43:59.844Z,20.5
2022-09-13T02:45:59.954Z,20.7
2022-09-13T02:47:59.837Z,21.0
2022-09-13T02:49:59.874Z,20.9
2022-09-13T02:51:59.864Z,21.0
2022-09-13T02:53:59.843Z,20.7
2022-09-13T02:55:59.865Z,20.7
2022-09-13T02:57:59.879Z,20.6
2022-09-13T02:59:59.862Z,20.5
2022-09-13T03:01:59.905Z,20.4
2022-09-13T03:03:59.956Z,20.7
2022-09-13T03:05:59.849Z,20.8
2022-09-13T03:07:59.830Z,21.0
2022-09-13T03:09:59.988Z,21.0
2022-09-13T03:11:59.867Z,21.1
2022-09-13T03:13:59.878Z,21.3
2022-09-13T03:15:59.893Z,21.1
2022-09-13T03:18:00.036Z,21.2
2022-09-13T03:19:59.880Z,21.3
2022-09-13T03:21:59.897Z,21.5
2022-09-13T03:23:59.889Z,21.6
2022-09-13T03:25:59.858Z,21.3
2022-09-13T03:27:59.892Z,21.2
2022-09-13T03:29:59.872Z,21.4
2022-09-13T03:31:59.916Z,21.6
2022-09-13T03:33:59.995Z,21.6
2022-09-13T03:35:59.858Z,21.6
2022-09-13T03:37:59.914Z,21.4
2022-09-13T03:39:59.894Z,21.6
2022-09-13T03:41:59.867Z,21.5
2022-09-13T03:43:59.910Z,21.6
2022-09-13T03:45:59.959Z,21.4
2022-09-13T03:47:59.978Z,21.2
2022-09-13T03:49:59.883Z,21.1
2022-09-13T03:51:59.904Z,20.9
2022-09-13T03:53:59.981Z,20.8
2022-09-13T03:56:29.899Z,20.9
2022-09-13T03:58:29.902Z,21.2
2022-09-13T04:00:29.943Z,21.2
2022-09-13T04:02:29.940Z,21.2
2022-09-13T04:04:29.929Z,20.9
2022-09-13T04:06:29.996Z,20.9
2022-09-13T04:08:29.888Z,21.2
2022-09-13T04:10:29.895Z,21.2
2022-09-13T04:12:29.897Z,21.0
2022-09-13T04:14:29.921Z,21.1
2022-09-13T04:16:29.971Z,21.4
2022-09-13T04:18:29.988Z,21.5
2022-09-13T04:20:29.967Z,21.4
2022-09-13T04:22:29.921Z,21.2
2022-09-13T04:24:29.987Z,21.2
2022-09-13T04:26:30.018Z,21.0
2022-09-13T04:28:29.927Z,21.0
2022-09-13T04:30:30.015Z,20.8
2022-09-13T04:32:29.959Z,20.7
2022-09-13T04:34:29.968Z,20.7
2022-09-13T04:36:29.931Z,20.8
2022-09-13T04:38:29.916Z,20.8
2022-09-13T04:40:29.907Z,21.0
2022-09-13T04:42:30.018Z,20.8
2022-09-13T04:44:29.950Z,20.8
2022-09-13T04:46:29.993Z,20.6
2022-09-13T04:48:30.019Z,20.7
2022-09-13T04:50:29.928Z,20.8
2022-09-13T04:52:30.047Z,21.1
2022-09-13T04:54:30.044Z,21.4
2022-09-13T04:56:30.040Z,21.1
2022-09-13T04:58:30.010Z,20.9
2022-09-13T05:00:29.952Z,20.6
2022-09-13T05:02:29.961Z,20.5
2022-09-13T05:04:29.953Z,20.8
2022-09-13T05:06:29.971Z,20.7
2022-09-13T05:08:30.212Z,20.5
2022-09-13T05:10:29.980Z,20.5
2022-09-13T05:12:30.030Z,20.6
2022-09-13T05:14:30.050Z,20.5
2022-09-13T05:16:29.956Z,20.5
2022-09-13T05:18:29.954Z,20.2
2022-09-13T05:20:29.983Z,20.0
2022-09-13T05:22:29.961Z,20.1
2022-09-13T05:24:30.008Z,20.0
2022-09-13T05:26:30.032Z,20.2
2022-09-13T05:28:29.995Z,20.1
2022-09-13T05:30:29.981Z,20.1
2022-09-13T05:32:30.037Z,20.1
2022-09-13T05:34:30.042Z,20.3
2022-09-13T05:36:29.963Z,20.2
2022-09-13T05:40:30.144Z,20.3
2022-09-13T05:42:30.127Z,20.5
2022-09-13T05:44:41.175Z,20.5
2022-09-13T05:46:41.147Z,20.4
2022-09-13T05:48:41.135Z,20.7
2022-09-13T05:50:57.255Z,20.5
2022-09-13T05:52:41.127Z,20.3
2022-09-13T05:54:41.164Z,20.3
2022-09-13T05:56:42.248Z,20.4
2022-09-13T05:58:41.167Z,20.4
2022-09-13T06:00:41.131Z,20.6
2022-09-13T06:02:41.232Z,20.6
2022-09-13T06:04:41.194Z,20.8
2022-09-13T06:06:41.183Z,20.6
2022-09-13T06:08:41.243Z,20.5
2022-09-13T06:10:41.149Z,20.5
2022-09-13T06:12:41.279Z,20.4
2022-09-13T06:14:41.185Z,20.9
2022-09-13T06:16:41.157Z,20.7
2022-09-13T06:18:41.223Z,21.0
2022-09-13T06:20:41.151Z,20.9
2022-09-13T06:22:41.176Z,21.0
2022-09-13T06:24:41.159Z,21.1
2022-09-13T06:26:41.204Z,20.9
2022-09-13T06:28:41.160Z,21.0
2022-09-13T06:30:41.197Z,21.1
2022-09-13T06:32:41.181Z,21.0
2022-09-13T06:35:11.207Z,21.2
2022-09-13T06:37:11.159Z,21.3
2022-09-13T06:39:11.172Z,21.0
2022-09-13T06:41:11.168Z,21.0
2022-09-13T06:43:11.183Z,21.1
2022-09-13T06:45:11.185Z,20.8
2022-09-13T06:47:11.186Z,21.2
2022-09-13T06:49:11.225Z,21.2
2022-09-13T06:51:11.184Z,21.4
2022-09-13T06:53:11.183Z,21.2
2022-09-13T06:55:12.833Z,21.4
2022-09-13T06:57:11.214Z,21.3
2022-09-13T06:59:11.314Z,21.1
2022-09-13T07:01:11.263Z,21.0
2022-09-13T07:03:11.210Z,20.9
2022-09-13T07:05:11.226Z,20.9
2022-09-13T07:07:11.185Z,20.6
2022-09-13T07:09:11.175Z,20.7
2022-09-13T07:11:11.220Z,20.7
2022-09-13T07:13:11.181Z,20.3
2022-09-13T07:15:11.229Z,20.4
2022-09-13T07:17:11.322Z,20.3
2022-09-13T07:19:11.212Z,20.2
2022-09-13T07:21:11.214Z,20.2
2022-09-13T07:23:15.130Z,20.1
2022-09-13T07:25:11.226Z,20.0
2022-09-13T07:27:11.277Z,20.0
2022-09-13T07:29:11.232Z,19.8
2022-09-13T07:33:11.206Z,19.4
2022-09-13T07:35:11.267Z,19.4
2022-09-13T07:37:11.196Z,19.2
2022-09-13T07:39:15.575Z,19.4
2022-09-13T07:41:11.243Z,19.3
2022-09-13T07:43:11.247Z,19.4
2022-09-13T07:45:11.341Z,19.5
2022-09-13T07:47:11.213Z,19.1
2022-09-13T07:49:11.253Z,18.8
2022-09-13T07:51:11.239Z,18.7
2022-09-13T07:53:11.208Z,18.7
2022-09-13T07:55:11.219Z,18.5
2022-09-13T07:57:11.235Z,18.7
2022-09-13T07:59:11.233Z,18.8
2022-09-13T08:01:11.286Z,18.9
2022-09-13T08:03:11.242Z,18.5
2022-09-13T08:05:11.251Z,18.4
2022-09-13T08:07:11.262Z,18.6
2022-09-13T08:09:11.304Z,18.5
2022-09-13T08:11:11.286Z,18.8
2022-09-13T08:13:11.254Z,19.2
2022-09-13T08:15:11.252Z,19.0
2022-09-13T08:17:11.277Z,18.9
2022-09-13T08:19:11.239Z,19.3
2022-09-13T08:21:11.396Z,19.3
2022-09-13T08:23:11.241Z,19.3
2022-09-13T08:25:11.317Z,19.5
2022-09-13T08:27:11.241Z,19.5
2022-09-13T08:29:41.237Z,19.6
2022-09-13T08:31:41.301Z,19.6
2022-09-13T08:33:46.109Z,19.7
2022-09-13T08:35:41.288Z,19.7
2022-09-13T08:37:41.277Z,19.8
2022-09-13T08:39:41.284Z,19.7
2022-09-13T08:41:41.362Z,19.6
2022-09-13T08:43:41.294Z,19.7
2022-09-13T08:45:41.276Z,19.6
2022-09-13T08:47:41.278Z,19.8
2022-09-13T08:49:41.311Z,20.2
2022-09-13T08:51:41.260Z,20.1
2022-09-13T08:53:41.293Z,20.0
2022-09-13T08:55:41.312Z,20.0
2022-09-13T08:57:41.260Z,20.0
2022-09-13T08:59:41.298Z,19.9
2022-09-13T09:01:41.356Z,19.9
2022-09-13T09:03:41.285Z,20.4
2022-09-13T09:05:41.259Z,20.5
2022-09-13T09:07:41.268Z,20.5
2022-09-13T09:09:41.299Z,20.8
2022-09-13T09:11:41.287Z,20.7
2022-09-13T09:13:41.330Z,20.4
2022-09-13T09:15:41.365Z,20.3
2022-09-13T09:17:41.285Z,20.4
2022-09-13T09:19:41.448Z,20.1
2022-09-13T09:21:41.288Z,19.9
2022-09-13T09:23:41.340Z,19.9
2022-09-13T09:25:41.325Z,20.0
2022-09-13T09:27:41.293Z,20.3
2022-09-13T09:29:41.319Z,20.3
2022-09-13T09:31:41.341Z,20.6
2022-09-13T09:33:41.436Z,20.7
2022-09-13T09:35:41.310Z,20.4
2022-09-13T09:37:41.330Z,20.5
2022-09-13T09:39:41.363Z,20.7
2022-09-13T09:41:41.339Z,20.8
2022-09-13T09:43:41.307Z,20.6
2022-09-13T09:45:41.430Z,20.5
2022-09-13T09:47:41.354Z,20.6
2022-09-13T09:49:41.312Z,20.2
2022-09-13T09:51:41.325Z,20.4
2022-09-13T09:53:41.325Z,20.4
2022-09-13T09:55:41.339Z,20.4
2022-09-13T09:57:41.379Z,20.4
2022-09-13T09:59:41.333Z,20.4
2022-09-13T10:01:41.354Z,20.6
2022-09-13T10:03:41.467Z,20.2
2022-09-13T10:05:41.346Z,20.1
2022-09-13T10:07:41.333Z,20.3
2022-09-13T10:09:41.374Z,20.1
2022-09-13T10:11:41.337Z,20.0
2022-09-13T10:13:41.494Z,19.9
2022-09-13T10:15:41.345Z,19.9
2022-09-13T10:17:41.339Z,19.9
2022-09-13T10:19:41.386Z,19.9
2022-09-13T10:21:41.455Z,20.0
2022-09-13T10:23:41.371Z,20.0
2022-09-13T10:25:44.766Z,19.9
2022-09-13T10:27:41.400Z,19.8
2022-09-13T10:30:11.364Z,19.6
2022-09-13T10:32:11.439Z,19.6
2022-09-13T10:34:11.388Z,19.4
2022-09-13T10:36:11.392Z,19.4
2022-09-13T10:38:11.425Z,19.1
2022-09-13T10:40:11.603Z,19.0
2022-09-13T10:42:11.510Z,19.1
2022-09-13T10:44:11.413Z,19.4
2022-09-13T10:46:11.433Z,19.3
2022-09-13T10:48:11.417Z,19.5
2022-09-13T10:50:11.563Z,19.4
2022-09-13T10:52:14.395Z,19.6
2022-09-13T10:54:11.459Z,19.7
2022-09-13T10:56:11.368Z,19.4
2022-09-13T10:58:11.490Z,19.6
2022-09-13T11:00:11.427Z,19.5
2022-09-13T11:02:11.426Z,19.4
2022-09-13T11:04:11.446Z,19.6
2022-09-13T11:06:11.424Z,19.5
2022-09-13T11:08:11.387Z,19.4
2022-09-13T11:10:11.519Z,19.2
2022-09-13T11:12:11.434Z,19.4
2022-09-13T11:14:11.404Z,19.4
2022-09-13T11:16:11.437Z,19.6
2022-09-13T11:18:11.447Z,19.9
2022-09-13T11:20:11.467Z,19.9
2022-09-13T11:22:11.453Z,20.0
2022-09-13T11:24:11.404Z,20.0
2022-09-13T11:26:11.445Z,20.2
2022-09-13T11:28:11.441Z,20.1
2022-09-13T11:30:11.608Z,20.2
2022-09-13T11:32:11.432Z,20.3
2022-09-13T11:34:11.433Z,20.6
2022-09-13T11:36:11.470Z,20.6
2022-09-13T11:38:11.495Z,20.5
2022-09-13T11:40:11.590Z,20.5
2022-09-13T11:42:11.566Z,20.5
2022-09-13T11:44:11.431Z,20.4
2022-09-13T11:46:11.522Z,20.4
2022-09-13T11:48:11.492Z,20.1
2022-09-13T11:50:11.461Z,20.5
2022-09-13T11:52:11.574Z,20.6
2022-09-13T11:54:11.545Z,20.6
2022-09-13T11:56:11.563Z,20.8
2022-09-13T11:58:13.451Z,20.9
2022-09-13T12:00:12.441Z,20.8
2022-09-13T12:02:11.613Z,20.6
2022-09-13T12:04:11.595Z,20.6
2022-09-13T12:06:11.879Z,20.6
2022-09-13T12:08:11.548Z,20.9
2022-09-13T12:10:11.436Z,20.8
2022-09-13T12:12:11.507Z,20.8
2022-09-13T12:14:11.499Z,21.0
2022-09-13T12:16:11.552Z,20.9
2022-09-13T12:18:11.672Z,20.6
2022-09-13T12:20:11.595Z,20.6
2022-09-13T12:22:11.578Z,20.6
2022-09-13T12:24:11.518Z,20.3
2022-09-13T12:26:12.591Z,20.2
2022-09-13T12:28:11.673Z,20.1
2022-09-13T12:30:11.569Z,20.1
2022-09-13T12:32:11.643Z,20.1
2022-09-13T12:34:11.578Z,19.8
2022-09-13T12:36:41.554Z,20.0
2022-09-13T12:40:41.493Z,20.1
2022-09-13T12:42:41.592Z,20.1
2022-09-13T12:44:41.568Z,20.0
2022-09-13T12:46:41.636Z,20.0
2022-09-13T12:50:43.938Z,20.1
2022-09-13T12:52:41.568Z,20.1
2022-09-13T12:56:41.589Z,20.1
2022-09-13T13:00:29.533Z,19.9
2022-09-13T13:02:29.492Z,19.9
2022-09-13T13:04:29.605Z,20.0
2022-09-13T13:06:29.545Z,20.0
2022-09-13T13:08:29.591Z,19.6
2022-09-13T13:10:29.617Z,19.6
2022-09-13T13:12:29.611Z,19.5
2022-09-13T13:14:29.663Z,19.6
2022-09-13T13:16:29.660Z,19.4
2022-09-13T13:18:29.545Z,19.6
2022-09-13T13:20:29.568Z,19.7
2022-09-13T13:22:29.569Z,19.4
2022-09-13T13:24:29.538Z,19.8
2022-09-13T13:26:29.633Z,19.7
2022-09-13T13:28:29.619Z,19.8
2022-09-13T13:30:29.561Z,19.9
2022-09-13T13:32:29.683Z,19.8
2022-09-13T13:34:29.539Z,20.0
2022-09-13T13:36:29.614Z,19.9
2022-09-13T13:38:29.576Z,20.1
2022-09-13T13:40:29.672Z,19.9
2022-09-13T13:42:29.547Z,20.1
2022-09-13T13:44:29.539Z,20.3
2022-09-13T13:46:29.619Z,20.4
2022-09-13T13:48:29.576Z,20.5
2022-09-13T13:50:29.569Z,20.4
2022-09-13T13:52:59.587Z,20.2
2022-09-13T13:54:59.673Z,20.3
2022-09-13T13:56:59.631Z,20.3
2022-09-13T13:58:59.535Z,20.4
2022-09-13T14:00:59.687Z,20.6
2022-09-13T14:02:59.677Z,20.8
2022-09-13T14:04:59.610Z,20.8
2022-09-13T14:07:03.119Z,20.8
2022-09-13T14:10:59.535Z,21.3
2022-09-13T14:12:59.554Z,21.2
2022-09-13T14:14:59.655Z,21.0
2022-09-13T14:16:59.707Z,20.9
2022-09-13T14:18:59.541Z,20.9
2022-09-13T14:20:59.563Z,21.1
2022-09-13T14:22:59.607Z,21.4
2022-09-13T14:24:59.582Z,21.3
2022-09-13T14:26:59.585Z,21.3
2022-09-13T14:28:59.550Z,21.3
2022-09-13T14:30:59.678Z,20.9
2022-09-13T14:32:59.681Z,20.6
2022-09-13T14:34:59.568Z,20.5
2022-09-13T14:36:59.606Z,20.5
2022-09-13T14:38:59.604Z,20.2
2022-09-13T14:40:59.601Z,20.8
2022-09-13T14:42:59.645Z,20.6
2022-09-13T14:44:59.625Z,20.6
2022-09-13T14:46:59.698Z,20.9
2022-09-13T14:48:59.701Z,20.6
2022-09-13T14:50:59.738Z,20.7
2022-09-13T14:52:59.604Z,20.7
2022-09-13T14:54:59.637Z,20.6
2022-09-13T14:56:59.660Z,20.5
2022-09-13T14:58:59.613Z,20.7
2022-09-13T15:00:59.773Z,20.5
2022-09-13T15:02:59.685Z,20.5
2022-09-13T15:04:59.739Z,20.5
2022-09-13T15:06:59.792Z,20.8
2022-09-13T15:08:59.653Z,20.5
2022-09-13T15:10:59.632Z,20.5
2022-09-13T15:12:59.641Z,20.6
2022-09-13T15:14:59.677Z,20.7
2022-09-13T15:16:59.688Z,20.8
2022-09-13T15:18:59.654Z,20.8
2022-09-13T15:20:59.616Z,20.6
2022-09-13T15:22:59.721Z,20.5
2022-09-13T15:24:59.665Z,20.2
2022-09-13T15:26:59.670Z,20.1
2022-09-13T15:28:59.686Z,20.2
2022-09-13T15:30:59.725Z,20.2
2022-09-13T15:32:59.701Z,20.6
2022-09-13T15:34:59.748Z,20.7
2022-09-13T15:36:59.712Z,20.6
2022-09-13T15:38:59.773Z,20.8
2022-09-13T15:40:59.676Z,20.5
2022-09-13T15:42:59.660Z,20.4
2022-09-13T15:44:59.714Z,20.2
2022-09-13T15:46:59.782Z,19.8
2022-09-13T15:48:59.739Z,20.0
2022-09-13T15:50:59.741Z,20.1
2022-09-13T15:52:59.776Z,20.2
2022-09-13T15:54:59.794Z,20.2
2022-09-13T15:57:29.685Z,20.1
2022-09-13T15:59:29.645Z,20.4
2022-09-13T16:01:29.760Z,20.3
2022-09-13T16:03:29.740Z,20.1
2022-09-13T16:05:29.741Z,19.9
2022-09-13T16:07:29.752Z,20.0
2022-09-13T16:09:29.793Z,20.0
2022-09-13T16:11:29.696Z,20.2
2022-09-13T16:13:29.689Z,20.5
2022-09-13T16:15:29.701Z,20.7
2022-09-13T16:17:29.950Z,20.5
2022-09-13T16:19:29.727Z,20.2
2022-09-13T16:21:29.779Z,20.4
2022-09-13T16:23:29.758Z,20.5
2022-09-13T16:25:29.810Z,20.4
2022-09-13T16:27:31.917Z,20.3
2022-09-13T16:29:29.671Z,20.1
2022-09-13T16:31:29.776Z,20.0
2022-09-13T16:33:29.747Z,20.1
2022-09-13T16:35:29.754Z,20.2
2022-09-13T16:37:29.776Z,20.2
2022-09-13T16:39:29.770Z,20.3
2022-09-13T16:41:29.807Z,20.5
2022-09-13T16:43:29.800Z,20.5
2022-09-13T16:45:29.711Z,20.6
2022-09-13T16:47:29.736Z,20.5
2022-09-13T16:49:30.033Z,20.5
2022-09-13T16:51:29.784Z,20.5
2022-09-13T16:53:29.804Z,20.4
2022-09-13T16:55:32.681Z,20.2
2022-09-13T16:57:29.839Z,20.3
2022-09-13T16:59:29.772Z,20.2
2022-09-13T17:01:29.840Z,20.2
2022-09-13T17:03:29.773Z,20.0
2022-09-13T17:05:29.745Z,20.0
2022-09-13T17:07:29.772Z,20.0
2022-09-13T17:09:30.010Z,20.1
2022-09-13T17:11:29.817Z,20.0
2022-09-13T17:13:29.852Z,19.7
2022-09-13T17:15:29.773Z,19.9
2022-09-13T17:17:29.788Z,20.0
2022-09-13T17:19:29.765Z,20.0
2022-09-13T17:21:29.790Z,20.0
2022-09-13T17:23:29.803Z,20.0
2022-09-13T17:25:29.729Z,20.0
2022-09-13T17:27:29.819Z,20.5
2022-09-13T17:29:29.762Z,20.4
2022-09-13T17:31:29.742Z,20.5
2022-09-13T17:33:29.865Z,20.6
2022-09-13T17:35:29.824Z,20.5
2022-09-13T17:37:29.924Z,20.5
2022-09-13T17:39:29.911Z,20.4
2022-09-13T17:41:29.896Z,20.0
2022-09-13T17:43:29.937Z,19.9
2022-09-13T17:45:29.857Z,20.0
2022-09-13T17:47:29.771Z,19.9
2022-09-13T17:49:29.777Z,20.0
2022-09-13T17:51:29.801Z,19.9
2022-09-13T17:53:29.813Z,19.9
2022-09-13T17:55:29.755Z,20.2
2022-09-13T17:57:29.847Z,20.2
2022-09-13T17:59:59.725Z,20.1
2022-09-13T18:01:59.777Z,20.1
2022-09-13T18:03:59.808Z,20.8
2022-09-13T18:05:59.832Z,20.6
2022-09-13T18:07:59.808Z,20.7
2022-09-13T18:09:59.848Z,21.0
2022-09-13T18:12:00.862Z,21.2
2022-09-13T18:13:59.886Z,21.3
2022-09-13T18:15:59.823Z,21.0
2022-09-13T18:17:59.756Z,21.0
2022-09-13T18:19:59.823Z,21.1
2022-09-13T18:22:00.001Z,20.9
2022-09-13T18:23:59.903Z,20.9
2022-09-13T18:26:02.558Z,20.7
2022-09-13T18:27:59.890Z,20.2
2022-09-13T18:29:59.880Z,20.4
2022-09-13T18:31:59.847Z,20.6
2022-09-13T18:33:59.780Z,20.3
2022-09-13T18:35:59.814Z,20.2
2022-09-13T18:37:59.837Z,19.9
2022-09-13T18:40:00.000Z,19.9
2022-09-13T18:42:00.050Z,19.7
2022-09-13T18:43:59.977Z,19.7
2022-09-13T18:45:59.965Z,19.7
2022-09-13T18:47:59.799Z,19.8
2022-09-13T18:49:59.794Z,19.6
2022-09-13T18:51:59.876Z,19.8
2022-09-13T18:53:59.847Z,19.9
2022-09-13T18:56:00.003Z,19.5
2022-09-13T18:58:00.000Z,19.3
2022-09-13T18:59:59.774Z,19.4
2022-09-13T19:01:59.962Z,19.5
2022-09-13T19:03:59.818Z,19.1
2022-09-13T19:05:59.828Z,19.3
2022-09-13T19:07:59.862Z,19.2
2022-09-13T19:09:59.835Z,18.9
2022-09-13T19:11:59.950Z,18.5
2022-09-13T19:13:59.943Z,18.5
2022-09-13T19:15:59.967Z,18.7
2022-09-13T19:17:59.927Z,18.7
2022-09-13T19:19:59.839Z,18.9
2022-09-13T19:21:59.880Z,19.1
2022-09-13T19:24:00.989Z,19.4
2022-09-13T19:25:59.923Z,19.5
2022-09-13T19:27:59.988Z,19.6
2022-09-13T19:29:59.898Z,19.9
2022-09-13T19:31:59.932Z,19.7
2022-09-13T19:33:59.890Z,20.0
2022-09-13T19:35:59.864Z,19.9
2022-09-13T19:37:59.955Z,20.0
2022-09-13T19:40:00.011Z,19.9
2022-09-13T19:41:59.904Z,19.9
2022-09-13T19:44:10.981Z,20.1
2022-09-13T19:46:10.969Z,20.0
2022-09-13T19:48:37.801Z,20.2
2022-09-13T19:50:10.994Z,20.3
2022-09-13T19:52:10.947Z,20.3
2022-09-13T19:54:10.920Z,20.2
2022-09-13T19:56:10.950Z,20.0
2022-09-13T19:58:10.997Z,20.0
2022-09-13T20:00:10.944Z,20.2
2022-09-13T20:02:11.026Z,20.0
2022-09-13T20:04:11.030Z,20.0
2022-09-13T20:06:11.039Z,20.0
2022-09-13T20:08:11.062Z,20.2
2022-09-13T20:10:10.948Z,20.7
2022-09-13T20:12:10.971Z,20.9
2022-09-13T20:14:11.034Z,20.6
2022-09-13T20:16:11.067Z,20.8
2022-09-13T20:18:11.106Z,20.7
2022-09-13T20:20:11.036Z,20.5
2022-09-13T20:22:11.085Z,20.6
2022-09-13T20:24:10.999Z,20.9
2022-09-13T20:26:10.954Z,21.0
2022-09-13T20:28:10.998Z,20.9
2022-09-13T20:30:10.981Z,20.7
2022-09-13T20:32:11.016Z,20.8
2022-09-13T20:34:11.072Z,20.9
2022-09-13T20:36:11.064Z,20.9
2022-09-13T20:38:10.998Z,20.9
2022-09-13T20:40:11.032Z,21.2
2022-09-13T20:42:10.936Z,21.1
2022-09-13T20:46:41.040Z,21.0
2022-09-13T20:48:41.073Z,20.8
2022-09-13T20:50:41.051Z,20.8
2022-09-13T20:52:41.082Z,21.0
2022-09-13T20:54:41.019Z,20.9
2022-09-13T20:56:40.975Z,21.3
2022-09-13T20:58:41.040Z,21.4
2022-09-13T21:00:40.953Z,21.4
2022-09-13T21:02:41.110Z,21.5
2022-09-13T21:04:40.955Z,21.2
2022-09-13T21:06:41.010Z,21.1
2022-09-13T21:08:40.958Z,21.0
2022-09-13T21:10:40.989Z,20.5
2022-09-13T21:12:41.017Z,20.4
2022-09-13T21:14:40.954Z,20.4
2022-09-13T21:16:41.038Z,20.3
2022-09-13T21:18:41.031Z,20.2
2022-09-13T21:20:41.058Z,20.3
2022-09-13T21:22:40.985Z,20.3
2022-09-13T21:24:41.041Z,20.0
2022-09-13T21:26:40.955Z,19.6
2022-09-13T21:28:41.022Z,19.5
2022-09-13T21:30:41.023Z,19.8
2022-09-13T21:32:41.030Z,19.5
2022-09-13T21:34:41.037Z,19.6
2022-09-13T21:36:41.090Z,19.7
2022-09-13T21:38:41.103Z,19.9
2022-09-13T21:40:40.981Z,20.1
2022-09-13T21:42:41.105Z,20.4
2022-09-13T21:44:41.022Z,20.5
2022-09-13T21:46:41.024Z,20.5
2022-09-13T21:48:41.015Z,20.7
2022-09-13T21:50:41.039Z,20.6
2022-09-13T21:52:41.094Z,20.6
2022-09-13T21:54:41.206Z,20.7
2022-09-13T21:56:41.110Z,20.6
2022-09-13T21:58:41.028Z,20.6
2022-09-13T22:00:41.039Z,20.6
2022-09-13T22:02:41.063Z,20.7
2022-09-13T22:04:41.029Z,20.8
2022-09-13T22:06:41.022Z,20.9
2022-09-13T22:08:41.009Z,21.0
2022-09-13T22:10:41.131Z,20.9
2022-09-13T22:12:41.022Z,20.8
2022-09-13T22:14:41.069Z,20.9
2022-09-13T22:16:41.137Z,20.8
2022-09-13T22:18:41.034Z,20.7
2022-09-13T22:20:41.015Z,20.5
2022-09-13T22:22:41.114Z,20.2
2022-09-13T22:24:41.067Z,20.4
2022-09-13T22:26:41.116Z,20.4
2022-09-13T22:28:41.084Z,20.4
2022-09-13T22:30:41.059Z,20.4
2022-09-13T22:32:41.000Z,20.4
2022-09-13T22:34:41.022Z,20.2
2022-09-13T22:36:41.120Z,20.0
2022-09-13T22:38:41.040Z,20.0
2022-09-13T22:40:41.119Z,19.8
2022-09-13T22:42:41.037Z,19.9
2022-09-13T22:44:41.092Z,19.9
2022-09-13T22:47:11.020Z,20.0
2022-09-13T22:49:11.141Z,19.9
2022-09-13T22:51:11.051Z,20.0
2022-09-13T22:53:11.039Z,19.7
2022-09-13T22:55:11.033Z,19.9
2022-09-13T22:57:11.199Z,19.6
2022-09-13T22:59:11.080Z,19.4
2022-09-13T23:01:11.101Z,19.5
2022-09-13T23:03:11.066Z,19.6
2022-09-13T23:05:11.069Z,19.6
2022-09-13T23:07:11.023Z,19.3
2022-09-13T23:09:11.048Z,19.6
2022-09-13T23:11:11.078Z,19.7
2022-09-13T23:13:11.184Z,19.7
2022-09-13T23:15:11.079Z,19.7
2022-09-13T23:17:11.120Z,19.9
2022-09-13T23:19:11.048Z,20.0
2022-09-13T23:21:11.064Z,20.3
2022-09-13T23:23:11.146Z,20.4
2022-09-13T23:25:11.104Z,20.6
2022-09-13T23:27:11.172Z,20.8
2022-09-13T23:29:11.048Z,20.7
2022-09-13T23:31:11.101Z,20.7
2022-09-13T23:33:11.089Z,20.6
2022-09-13T23:35:11.100Z,20.9
2022-09-13T23:37:11.137Z,21.1
2022-09-13T23:39:11.063Z,21.1
2022-09-13T23:41:11.201Z,21.3
2022-09-13T23:43:11.061Z,21.1
2022-09-13T23:45:11.092Z,20.9
2022-09-13T23:47:11.062Z,21.2
2022-09-13T23:49:11.159Z,21.2
2022-09-13T23:51:11.081Z,21.3
2022-09-13T23:53:11.163Z,21.3
2022-09-13T23:55:11.126Z,21.2
2022-09-13T23:57:11.248Z,21.1
2022-09-13T23:59:11.089Z,21.3
